createdAt,value
2023-03-31T00:03:25.285Z,3.73
2023-03-31T00:08:29.901Z,3.17
2023-03-31T00:13:31.733Z,4.20
2023-03-31T00:18:35.309Z,3.80
2023-03-31T00:23:37.414Z,3.83
2023-03-31T00:28:39.159Z,3.93
2023-03-31T00:33:42.206Z,3.77
2023-03-31T00:38:46.291Z,3.73
2023-03-31T00:44:02.504Z,3.57
2023-03-31T00:49:05.750Z,3.83
2023-03-31T00:54:08.453Z,3.93
2023-03-31T00:59:11.535Z,4.00
2023-03-31T01:04:14.632Z,3.43
2023-03-31T01:09:16.965Z,3.70
2023-03-31T01:14:20.241Z,3.57
2023-03-31T01:19:27.203Z,3.23
2023-03-31T01:24:47.334Z,3.20
2023-03-31T01:29:59.545Z,3.10
2023-03-31T01:35:35.920Z,2.70
2023-03-31T01:41:13.526Z,2.90
2023-03-31T01:46:20.061Z,4.10
2023-03-31T01:51:25.225Z,4.50
2023-03-31T01:56:30.718Z,3.47
2023-03-31T02:01:37.331Z,3.30
2023-03-31T02:06:41.429Z,3.40
2023-03-31T02:11:44.607Z,2.57
2023-03-31T02:16:47.426Z,3.77
2023-03-31T02:21:52.400Z,3.10
2023-03-31T02:26:57.321Z,3.07
2023-03-31T02:32:01.523Z,3.90
2023-03-31T02:37:03.439Z,2.53
2023-03-31T02:42:07.555Z,2.67
2023-03-31T02:47:11.290Z,3.00
2023-03-31T02:52:32.801Z,2.80
2023-03-31T02:58:04.375Z,3.20
2023-03-31T03:03:15.222Z,2.70
2023-03-31T03:08:21.367Z,2.50
2023-03-31T03:13:24.517Z,2.80
2023-03-31T03:18:27.680Z,3.40
2023-03-31T03:23:29.500Z,2.10
2023-03-31T03:28:31.518Z,2.13
2023-03-31T03:33:34.756Z,1.90
2023-03-31T03:38:36.858Z,1.87
2023-03-31T03:43:38.795Z,2.10
2023-03-31T03:48:42.173Z,2.17
2023-03-31T03:53:43.924Z,2.00
2023-03-31T03:58:45.746Z,2.10
2023-03-31T04:03:48.838Z,2.13
2023-03-31T04:08:50.573Z,2.00
2023-03-31T04:13:52.287Z,1.67
2023-03-31T04:18:59.692Z,1.50
2023-03-31T04:24:04.476Z,1.40
2023-03-31T04:29:07.385Z,3.40
2023-03-31T04:34:13.254Z,1.93
2023-03-31T04:39:15.377Z,2.20
2023-03-31T04:44:17.207Z,1.67
2023-03-31T04:49:20.267Z,1.57
2023-03-31T04:54:22.114Z,2.13
2023-03-31T04:59:23.851Z,1.57
2023-03-31T05:04:26.908Z,1.43
2023-03-31T05:09:28.632Z,1.60
2023-03-31T05:14:30.448Z,2.10
2023-03-31T05:19:33.521Z,1.93
2023-03-31T05:24:35.493Z,1.93
2023-03-31T05:29:37.542Z,1.83
2023-03-31T05:34:40.578Z,1.73
2023-03-31T05:39:42.330Z,2.33
2023-03-31T05:44:44.128Z,1.90
2023-03-31T05:49:47.193Z,1.83
2023-03-31T05:54:48.873Z,1.90
2023-03-31T05:59:50.787Z,2.10
2023-03-31T06:04:53.832Z,2.27
2023-03-31T06:09:55.590Z,2.30
2023-03-31T06:14:57.284Z,1.70
2023-03-31T06:20:00.418Z,1.70
2023-03-31T06:25:02.101Z,1.87
2023-03-31T06:30:04.236Z,2.60
2023-03-31T06:35:08.201Z,2.57
2023-03-31T06:40:10.832Z,2.00
2023-03-31T06:45:12.659Z,1.47
2023-03-31T06:50:15.710Z,1.63
2023-03-31T06:55:17.524Z,1.47
2023-03-31T07:00:22.356Z,1.90
2023-03-31T07:05:29.065Z,2.10
2023-03-31T07:10:31.398Z,2.13
2023-03-31T07:15:33.202Z,2.40
2023-03-31T07:20:36.264Z,1.70
2023-03-31T07:25:37.909Z,1.70
2023-03-31T07:30:40.022Z,2.50
2023-03-31T07:35:43.137Z,2.07
2023-03-31T07:40:47.482Z,2.03
2023-03-31T07:45:54.844Z,2.43
2023-03-31T07:50:57.942Z,1.93
2023-03-31T07:56:06.417Z,2.03
2023-03-31T08:01:08.586Z,2.23
2023-03-31T08:06:11.790Z,2.00
2023-03-31T08:11:14.028Z,1.70
2023-03-31T08:16:15.920Z,2.33
2023-03-31T08:21:19.025Z,2.27
2023-03-31T08:26:21.853Z,2.03
2023-03-31T08:31:25.964Z,2.10
2023-03-31T08:36:30.355Z,2.17
2023-03-31T08:41:41.650Z,2.60
2023-03-31T08:46:43.298Z,3.00
2023-03-31T08:51:47.662Z,3.53
2023-03-31T08:56:49.526Z,2.73
2023-03-31T09:01:56.824Z,3.03
2023-03-31T09:07:02.771Z,2.53
2023-03-31T09:12:07.531Z,2.40
2023-03-31T09:17:16.279Z,2.20
2023-03-31T09:22:21.068Z,3.00
2023-03-31T09:27:22.776Z,2.20
2023-03-31T09:32:25.362Z,3.10
2023-03-31T09:37:30.893Z,2.67
2023-03-31T09:42:32.595Z,2.60
2023-03-31T09:47:39.044Z,2.50
2023-03-31T09:52:43.402Z,2.60
2023-03-31T09:57:45.166Z,2.33
2023-03-31T10:02:49.488Z,2.20
2023-03-31T10:07:53.235Z,2.57
2023-03-31T10:12:57.699Z,2.63
2023-03-31T10:17:59.574Z,2.43
2023-03-31T10:23:06.719Z,2.57
2023-03-31T10:28:10.883Z,2.30
2023-03-31T10:33:22.163Z,2.60
2023-03-31T10:38:27.531Z,2.40
2023-03-31T10:43:29.946Z,2.67
2023-03-31T10:48:32.560Z,2.47
2023-03-31T10:53:41.257Z,2.00
2023-03-31T10:59:02.092Z,3.07
2023-03-31T11:04:21.469Z,2.67
2023-03-31T11:09:35.415Z,2.50
2023-03-31T11:14:42.318Z,2.10
2023-03-31T11:19:47.520Z,2.10
2023-03-31T11:25:07.821Z,2.23
2023-03-31T11:30:13.181Z,2.03
2023-03-31T11:35:23.841Z,3.10
2023-03-31T11:40:39.366Z,2.00
2023-03-31T11:45:42.308Z,1.90
2023-03-31T11:50:48.034Z,1.90
2023-03-31T11:55:53.875Z,2.23
2023-03-31T12:00:57.157Z,2.70
2023-03-31T12:06:02.613Z,2.30
2023-03-31T12:11:08.712Z,2.33
2023-03-31T12:16:12.015Z,2.13
2023-03-31T12:21:13.770Z,1.60
2023-03-31T12:26:27.979Z,1.70
2023-03-31T12:31:30.559Z,1.90
2023-03-31T12:36:40.246Z,4.50
2023-03-31T12:41:46.009Z,2.00
2023-03-31T12:47:03.928Z,2.07
2023-03-31T12:52:06.538Z,2.60
2023-03-31T12:57:21.262Z,4.40
2023-03-31T13:02:25.647Z,4.00
2023-03-31T13:07:35.657Z,2.53
2023-03-31T13:12:38.725Z,2.10
2023-03-31T13:17:41.289Z,2.10
2023-03-31T13:22:44.170Z,2.13
2023-03-31T13:27:50.114Z,2.43
2023-03-31T13:33:02.871Z,2.50
2023-03-31T13:38:08.342Z,2.70
2023-03-31T13:43:45.641Z,3.33
2023-03-31T13:48:52.117Z,2.83
2023-03-31T13:54:24.141Z,2.47
2023-03-31T13:59:46.068Z,2.20
2023-03-31T14:04:59.029Z,1.80
2023-03-31T14:10:00.895Z,2.97
2023-03-31T14:15:03.701Z,2.20
2023-03-31T14:20:24.720Z,2.20
2023-03-31T14:25:36.067Z,2.10
2023-03-31T14:30:42.692Z,5.77
2023-03-31T14:35:49.228Z,2.13
2023-03-31T14:40:53.783Z,2.77
2023-03-31T14:45:59.414Z,2.40
2023-03-31T14:51:03.194Z,5.20
2023-03-31T14:56:06.809Z,2.27
2023-03-31T15:01:09.028Z,3.50
2023-03-31T15:06:12.411Z,2.20
2023-03-31T15:11:17.812Z,2.80
2023-03-31T15:16:28.952Z,2.80
2023-03-31T15:21:34.272Z,3.07
2023-03-31T15:26:42.073Z,4.10
2023-03-31T15:31:44.814Z,4.13
2023-03-31T15:36:48.080Z,8.60
2023-03-31T15:41:50.014Z,3.60
2023-03-31T15:46:58.005Z,3.87
2023-03-31T15:52:02.313Z,2.40
2023-03-31T15:57:04.604Z,2.50
2023-03-31T16:02:09.076Z,2.43
2023-03-31T16:07:16.637Z,2.50
2023-03-31T16:12:20.639Z,2.03
2023-03-31T16:17:28.605Z,2.90
2023-03-31T16:22:35.412Z,3.40
2023-03-31T16:27:39.793Z,4.40
2023-03-31T16:33:01.764Z,4.00
2023-03-31T16:38:06.040Z,8.90
2023-03-31T16:43:09.615Z,4.07
2023-03-31T16:48:16.350Z,5.50
2023-03-31T16:53:22.162Z,5.17
2023-03-31T16:58:24.133Z,4.43
2023-03-31T17:03:26.410Z,5.40
2023-03-31T17:08:29.594Z,2.60
2023-03-31T17:13:32.385Z,2.80
2023-03-31T17:18:34.597Z,3.07
2023-03-31T17:23:38.105Z,8.77
2023-03-31T17:28:40.053Z,3.80
2023-03-31T17:33:42.013Z,10.30
2023-03-31T17:38:45.314Z,9.27
2023-03-31T17:43:48.737Z,20.20
2023-03-31T17:48:51.196Z,25.53
2023-03-31T17:53:54.263Z,42.00
2023-03-31T17:58:56.076Z,54.37
2023-03-31T18:03:57.814Z,28.73
2023-03-31T18:09:00.942Z,17.27
2023-03-31T18:14:02.935Z,38.50
2023-03-31T18:19:04.711Z,25.03
2023-03-31T18:24:08.171Z,9.40
2023-03-31T18:29:09.898Z,7.23
2023-03-31T18:34:13.428Z,9.13
2023-03-31T18:39:16.605Z,5.83
2023-03-31T18:44:18.726Z,4.50
2023-03-31T18:49:20.689Z,10.20
2023-03-31T18:54:23.884Z,10.90
2023-03-31T18:59:25.592Z,17.37
2023-03-31T19:04:27.242Z,7.60
2023-03-31T19:09:30.261Z,6.57
2023-03-31T19:14:33.229Z,5.30
2023-03-31T19:19:35.389Z,5.90
2023-03-31T19:24:39.909Z,5.50
2023-03-31T19:29:41.617Z,5.40
2023-03-31T19:34:45.429Z,5.90
2023-03-31T19:39:48.762Z,5.00
2023-03-31T19:44:50.600Z,8.80
2023-03-31T19:49:52.603Z,8.00
2023-03-31T19:54:55.722Z,3.70
2023-03-31T19:59:57.484Z,2.53
2023-03-31T20:04:59.356Z,2.23
2023-03-31T20:10:02.380Z,1.87
2023-03-31T20:15:04.786Z,1.77
2023-03-31T20:20:08.059Z,2.47
2023-03-31T20:25:11.348Z,1.83
2023-03-31T20:30:13.263Z,3.13
2023-03-31T20:35:15.213Z,3.60
2023-03-31T20:40:18.452Z,3.00
2023-03-31T20:45:20.355Z,2.37
2023-03-31T20:50:22.945Z,2.67
2023-03-31T20:55:26.550Z,2.67
2023-03-31T21:00:28.339Z,2.50
2023-03-31T21:05:30.366Z,2.47
2023-03-31T21:10:39.153Z,2.20
2023-03-31T21:15:40.949Z,1.70
2023-03-31T21:20:48.969Z,2.20
2023-03-31T21:25:53.129Z,2.30
2023-03-31T21:30:55.897Z,1.90
2023-03-31T21:35:58.724Z,1.60
2023-03-31T21:41:05.964Z,2.63
2023-03-31T21:46:07.971Z,1.53
2023-03-31T21:51:10.058Z,1.50
2023-03-31T21:56:13.108Z,1.70
2023-03-31T22:01:14.870Z,2.07
2023-03-31T22:06:17.099Z,1.37
2023-03-31T22:11:20.255Z,1.30
2023-03-31T22:16:22.162Z,1.27
2023-03-31T22:21:24.836Z,1.40
2023-03-31T22:26:29.626Z,1.87
2023-03-31T22:31:31.957Z,1.47
2023-03-31T22:36:33.776Z,1.50
2023-03-31T22:41:37.015Z,1.40
2023-03-31T22:46:38.962Z,1.43
2023-03-31T22:51:41.543Z,1.70
2023-03-31T22:56:45.376Z,1.90
2023-03-31T23:01:52.734Z,1.87
2023-03-31T23:06:55.053Z,1.63
2023-03-31T23:11:58.108Z,1.90
2023-03-31T23:16:59.934Z,2.03
2023-03-31T23:22:02.503Z,1.80
2023-03-31T23:27:05.544Z,3.73
2023-03-31T23:32:07.307Z,2.40
2023-03-31T23:37:09.434Z,1.97
2023-03-31T23:42:16.240Z,2.10
2023-03-31T23:47:18.206Z,1.73
2023-03-31T23:52:20.246Z,1.80
2023-03-31T23:57:23.358Z,1.83
